createdAt,value
2023-01-08T00:01:22.037Z,100113.44
2023-01-08T00:06:25.284Z,100109.84
2023-01-08T00:11:26.622Z,100101.19
2023-01-08T00:16:28.404Z,100099.00
2023-01-08T00:21:29.781Z,100094.19
2023-01-08T00:26:31.159Z,100096.16
2023-01-08T00:31:32.576Z,100098.13
2023-01-08T00:36:33.887Z,100085.69
2023-01-08T00:41:35.250Z,100076.69
2023-01-08T00:46:36.555Z,100068.63
2023-01-08T00:51:37.866Z,100064.22
2023-01-08T00:56:39.190Z,100057.63
2023-01-08T01:01:40.572Z,100053.78
2023-01-08T01:06:42.643Z,100043.13
2023-01-08T01:11:43.941Z,100051.72
2023-01-08T01:16:47.565Z,100053.91
2023-01-08T01:21:48.964Z,100056.31
2023-01-08T01:26:50.978Z,100049.88
2023-01-08T01:31:52.288Z,100044.63
2023-01-08T01:36:53.695Z,100046.19
2023-01-08T01:41:55.008Z,100045.00
2023-01-08T01:46:56.348Z,100040.22
2023-01-08T01:52:02.309Z,100041.09
2023-01-08T01:57:04.716Z,100025.47
2023-01-08T02:02:06.316Z,100032.09
2023-01-08T02:07:12.915Z,100025.47
2023-01-08T02:12:33.863Z,100015.88
2023-01-08T02:17:39.483Z,100006.63
2023-01-08T02:22:46.693Z,99999.44
2023-01-08T02:27:49.994Z,99995.88
2023-01-08T02:32:51.346Z,99994.09
2023-01-08T02:37:52.658Z,99989.91
2023-01-08T02:43:00.147Z,99969.06
2023-01-08T02:48:01.453Z,99961.03
2023-01-08T02:53:15.428Z,99949.00
2023-01-08T02:58:17.018Z,99948.00
2023-01-08T03:03:22.230Z,99940.56
2023-01-08T03:08:24.010Z,99927.13
2023-01-08T03:13:29.620Z,99938.56
2023-01-08T03:18:34.255Z,99923.53
2023-01-08T03:23:37.258Z,99916.09
2023-01-08T03:28:40.843Z,99901.84
2023-01-08T03:33:44.338Z,99910.13
2023-01-08T03:38:48.531Z,99920.16
2023-01-08T03:43:50.056Z,99902.88
2023-01-08T03:48:51.627Z,99909.69
2023-01-08T03:53:56.705Z,99919.53
2023-01-08T03:58:58.006Z,99920.31
2023-01-08T04:03:59.408Z,99920.72
2023-01-08T04:09:00.765Z,99914.09
2023-01-08T04:14:03.979Z,99900.25
2023-01-08T04:19:05.568Z,99903.88
2023-01-08T04:24:07.451Z,99895.03
2023-01-08T04:29:08.935Z,99891.22
2023-01-08T04:34:10.337Z,99889.63
2023-01-08T04:39:11.899Z,99877.19
2023-01-08T04:44:13.228Z,99872.38
2023-01-08T04:49:14.795Z,99880.59
2023-01-08T04:54:16.116Z,99881.22
2023-01-08T04:59:17.460Z,99880.78
2023-01-08T05:04:19.192Z,99882.22
2023-01-08T05:09:20.490Z,99876.56
2023-01-08T05:14:21.811Z,99873.94
2023-01-08T05:19:23.109Z,99868.91
2023-01-08T05:24:24.419Z,99863.13
2023-01-08T05:29:25.703Z,99864.75
2023-01-08T05:34:27.214Z,99855.47
2023-01-08T05:39:28.525Z,99862.50
2023-01-08T05:44:30.543Z,99881.19
2023-01-08T05:49:31.852Z,99885.19
2023-01-08T05:54:35.144Z,99880.34
2023-01-08T05:59:36.572Z,99857.72
2023-01-08T06:04:37.975Z,99862.19
2023-01-08T06:09:39.314Z,99867.22
2023-01-08T06:14:40.621Z,99871.28
2023-01-08T06:19:41.920Z,99864.25
2023-01-08T06:24:43.229Z,99858.44
2023-01-08T06:29:44.537Z,99854.84
2023-01-08T06:34:45.895Z,99850.03
2023-01-08T06:39:47.464Z,99869.06
2023-01-08T06:44:48.786Z,99879.47
2023-01-08T06:49:50.108Z,99867.47
2023-01-08T06:54:51.417Z,99877.72
2023-01-08T06:59:53.012Z,99872.50
2023-01-08T07:04:54.313Z,99874.50
2023-01-08T07:09:55.818Z,99878.91
2023-01-08T07:14:57.135Z,99890.31
2023-01-08T07:19:58.435Z,99902.16
2023-01-08T07:24:59.860Z,99887.31
2023-01-08T07:30:01.187Z,99886.53
2023-01-08T07:35:02.955Z,99869.06
2023-01-08T07:40:04.527Z,99888.16
2023-01-08T07:45:06.128Z,99882.31
2023-01-08T07:50:07.633Z,99895.13
2023-01-08T07:55:09.203Z,99892.91
2023-01-08T08:00:11.168Z,99890.50
2023-01-08T08:05:12.619Z,99906.94
2023-01-08T08:10:13.992Z,99899.09
2023-01-08T08:15:15.673Z,99901.94
2023-01-08T08:20:17.004Z,99890.91
2023-01-08T08:25:18.678Z,99890.69
2023-01-08T08:30:20.002Z,99878.50
2023-01-08T08:35:21.818Z,99885.09
2023-01-08T08:40:23.436Z,99884.94
2023-01-08T08:45:25.459Z,99889.72
2023-01-08T08:50:26.849Z,99888.53
2023-01-08T08:55:28.893Z,99871.63
2023-01-08T09:00:30.203Z,99860.41
2023-01-08T09:05:32.066Z,99870.25
2023-01-08T09:10:33.440Z,99860.63
2023-01-08T09:15:35.721Z,99857.66
2023-01-08T09:20:37.083Z,99863.69
2023-01-08T09:25:38.436Z,99855.63
2023-01-08T09:30:39.799Z,99860.22
2023-01-08T09:35:43.188Z,99854.16
2023-01-08T09:40:54.458Z,99853.31
2023-01-08T09:45:58.192Z,99851.84
2023-01-08T09:50:59.539Z,99854.44
2023-01-08T09:56:09.768Z,99860.47
2023-01-08T10:01:13.598Z,99859.09
2023-01-08T10:06:15.998Z,99855.09
2023-01-08T10:11:17.733Z,99857.47
2023-01-08T10:16:28.814Z,99834.66
2023-01-08T10:21:37.644Z,99827.25
2023-01-08T10:26:39.925Z,99816.66
2023-01-08T10:31:49.065Z,99807.09
2023-01-08T10:36:51.912Z,99800.09
2023-01-08T10:41:55.386Z,99788.13
2023-01-08T10:46:59.295Z,99774.25
2023-01-08T10:52:00.854Z,99759.16
2023-01-08T10:57:02.766Z,99764.09
2023-01-08T11:02:14.113Z,99768.00
2023-01-08T11:07:19.547Z,99772.50
2023-01-08T11:12:41.019Z,99764.56
2023-01-08T11:17:42.423Z,99758.19
2023-01-08T11:22:43.745Z,99743.97
2023-01-08T11:27:46.110Z,99739.28
2023-01-08T11:33:10.084Z,99730.28
2023-01-08T11:38:12.687Z,99730.78
2023-01-08T11:43:26.632Z,99723.97
2023-01-08T11:48:34.136Z,99719.88
2023-01-08T11:53:41.988Z,99724.00
2023-01-08T11:58:53.897Z,99716.81
2023-01-08T12:04:10.007Z,99704.69
2023-01-08T12:09:38.654Z,99688.25
2023-01-08T12:14:48.751Z,99679.03
2023-01-08T12:20:04.798Z,99681.06
2023-01-08T12:25:19.034Z,99682.97
2023-01-08T12:30:21.026Z,99677.88
2023-01-08T12:35:48.903Z,99679.94
2023-01-08T12:40:53.007Z,99670.63
2023-01-08T12:45:55.743Z,99680.56
2023-01-08T12:50:59.753Z,99664.63
2023-01-08T12:56:17.082Z,99663.50
2023-01-08T13:01:21.206Z,99668.19
2023-01-08T13:06:23.308Z,99654.44
2023-01-08T13:11:32.917Z,99633.75
2023-01-08T13:16:38.449Z,99626.97
2023-01-08T13:21:44.534Z,99632.88
2023-01-08T13:26:46.507Z,99624.63
2023-01-08T13:31:48.225Z,99616.84
2023-01-08T13:36:56.722Z,99624.47
2023-01-08T13:42:02.871Z,99616.56
2023-01-08T13:47:16.643Z,99608.75
2023-01-08T13:52:36.661Z,99588.66
2023-01-08T13:57:39.928Z,99585.53
2023-01-08T14:02:44.599Z,99577.50
2023-01-08T14:07:46.024Z,99583.81
2023-01-08T14:12:48.701Z,99571.97
2023-01-08T14:17:50.821Z,99576.38
2023-01-08T14:22:52.184Z,99574.16
2023-01-08T14:27:58.330Z,99565.66
2023-01-08T14:33:00.743Z,99570.03
2023-01-08T14:38:02.820Z,99568.06
2023-01-08T14:43:09.501Z,99575.75
2023-01-08T14:48:19.874Z,99568.34
2023-01-08T14:53:21.283Z,99545.34
2023-01-08T14:58:23.939Z,99546.94
2023-01-08T15:03:33.508Z,99548.13
2023-01-08T15:08:36.877Z,99546.31
2023-01-08T15:13:38.328Z,99553.22
2023-01-08T15:18:46.763Z,99551.97
2023-01-08T15:23:52.563Z,99541.13
2023-01-08T15:28:55.826Z,99535.34
2023-01-08T15:33:57.953Z,99530.00
2023-01-08T15:38:59.271Z,99521.56
2023-01-08T15:44:00.585Z,99518.09
2023-01-08T15:49:01.906Z,99521.00
2023-01-08T15:54:03.308Z,99530.22
2023-01-08T15:59:04.737Z,99528.63
2023-01-08T16:04:06.077Z,99530.63
2023-01-08T16:09:07.395Z,99529.78
2023-01-08T16:14:10.357Z,99527.78
2023-01-08T16:19:13.678Z,99516.06
2023-01-08T16:24:15.842Z,99508.06
2023-01-08T16:29:17.185Z,99511.03
2023-01-08T16:34:18.759Z,99517.84
2023-01-08T16:39:20.157Z,99514.75
2023-01-08T16:44:22.982Z,99509.00
2023-01-08T16:49:26.093Z,99503.22
2023-01-08T16:54:27.578Z,99487.25
2023-01-08T16:59:28.941Z,99477.47
2023-01-08T17:04:30.732Z,99474.00
2023-01-08T17:09:32.170Z,99452.78
2023-01-08T17:14:35.406Z,99444.28
2023-01-08T17:19:36.733Z,99438.59
2023-01-08T17:24:38.593Z,99436.22
2023-01-08T17:29:39.960Z,99446.19
2023-01-08T17:34:41.297Z,99434.88
2023-01-08T17:39:43.719Z,99428.06
2023-01-08T17:44:45.212Z,99426.81
2023-01-08T17:49:50.312Z,99428.44
2023-01-08T17:54:52.098Z,99414.78
2023-01-08T17:59:53.454Z,99406.19
2023-01-08T18:04:54.792Z,99402.75
2023-01-08T18:09:57.200Z,99400.56
2023-01-08T18:14:58.552Z,99387.28
2023-01-08T18:19:59.894Z,99387.84
2023-01-08T18:25:01.248Z,99382.41
2023-01-08T18:30:02.656Z,99386.22
2023-01-08T18:35:04.339Z,99378.53
2023-01-08T18:40:05.933Z,99366.94
2023-01-08T18:45:10.572Z,99365.34
2023-01-08T18:50:12.099Z,99341.09
2023-01-08T18:55:13.493Z,99340.38
2023-01-08T19:00:15.033Z,99339.97
2023-01-08T19:05:17.367Z,99326.91
2023-01-08T19:10:18.807Z,99313.59
2023-01-08T19:15:20.180Z,99316.38
2023-01-08T19:20:21.520Z,99302.69
2023-01-08T19:25:22.892Z,99286.28
2023-01-08T19:30:24.554Z,99282.44
2023-01-08T19:35:25.878Z,99280.22
2023-01-08T19:40:27.190Z,99268.22
2023-01-08T19:45:28.609Z,99262.13
2023-01-08T19:50:34.123Z,99254.56
2023-01-08T19:55:35.716Z,99246.13
2023-01-08T20:00:39.376Z,99242.16
2023-01-08T20:05:41.691Z,99222.13
2023-01-08T20:10:43.022Z,99215.84
2023-01-08T20:15:44.331Z,99205.66
2023-01-08T20:20:45.661Z,99209.19
2023-01-08T20:25:47.034Z,99193.13
2023-01-08T20:30:48.636Z,99186.69
2023-01-08T20:35:52.387Z,99184.31
2023-01-08T20:40:53.674Z,99179.22
2023-01-08T20:45:55.090Z,99170.25
2023-01-08T20:50:57.645Z,99164.16
2023-01-08T20:56:05.960Z,99165.41
2023-01-08T21:01:15.753Z,99153.03
2023-01-08T21:06:22.149Z,99141.38
2023-01-08T21:11:23.907Z,99135.72
2023-01-08T21:16:26.444Z,99130.94
2023-01-08T21:21:29.758Z,99129.38
2023-01-08T21:26:31.788Z,99118.69
2023-01-08T21:31:33.989Z,99101.03
2023-01-08T21:36:35.535Z,99095.44
2023-01-08T21:41:57.151Z,99087.47
2023-01-08T21:46:59.432Z,99086.78
2023-01-08T21:52:19.326Z,99072.44
2023-01-08T21:57:20.740Z,99072.09
2023-01-08T22:02:23.191Z,99068.19
2023-01-08T22:07:24.965Z,99061.03
2023-01-08T22:12:26.889Z,99054.56
2023-01-08T22:17:29.638Z,99053.50
2023-01-08T22:22:30.950Z,99044.47
2023-01-08T22:27:32.273Z,99047.34
2023-01-08T22:32:33.619Z,99045.91
2023-01-08T22:37:36.671Z,99043.25
2023-01-08T22:42:37.984Z,99043.44
2023-01-08T22:47:39.297Z,99045.31
2023-01-08T22:52:40.649Z,99048.78
2023-01-08T22:57:41.942Z,99043.44
2023-01-08T23:02:43.272Z,99050.50
2023-01-08T23:07:44.580Z,99052.75
2023-01-08T23:12:45.881Z,99053.97
2023-01-08T23:17:52.075Z,99054.63
2023-01-08T23:22:54.122Z,99054.22
2023-01-08T23:27:56.180Z,99051.63
2023-01-08T23:32:57.881Z,99049.66
2023-01-08T23:37:59.695Z,99055.34
2023-01-08T23:43:01.009Z,99053.38
2023-01-08T23:48:02.425Z,99058.63
2023-01-08T23:53:04.160Z,99061.88
2023-01-08T23:58:05.595Z,99063.69
